createdAt,value
2022-11-09T00:02:05.549Z,48.65
2022-11-09T00:04:36.151Z,48.73
2022-11-09T00:07:06.921Z,48.71
2022-11-09T00:09:37.912Z,48.70
2022-11-09T00:12:09.206Z,48.66
2022-11-09T00:14:39.954Z,48.83
2022-11-09T00:17:10.598Z,48.94
2022-11-09T00:19:41.641Z,49.01
2022-11-09T00:22:13.675Z,48.86
2022-11-09T00:24:44.339Z,49.01
2022-11-09T00:27:17.649Z,49.07
2022-11-09T00:29:48.783Z,49.13
2022-11-09T00:32:21.994Z,48.95
2022-11-09T00:34:55.993Z,49.10
2022-11-09T00:37:29.307Z,49.19
2022-11-09T00:40:00.201Z,49.11
2022-11-09T00:42:31.466Z,49.06
2022-11-09T00:45:02.217Z,49.25
2022-11-09T00:47:32.951Z,49.23
2022-11-09T00:50:03.742Z,49.29
2022-11-09T00:52:34.342Z,49.23
2022-11-09T00:55:05.412Z,49.27
2022-11-09T00:57:36.022Z,49.52
2022-11-09T01:00:08.241Z,49.45
2022-11-09T01:02:38.914Z,49.41
2022-11-09T01:05:10.396Z,49.56
2022-11-09T01:07:41.392Z,49.39
2022-11-09T01:10:13.029Z,49.36
2022-11-09T01:12:43.644Z,49.46
2022-11-09T01:15:14.353Z,49.38
2022-11-09T01:17:44.980Z,49.49
2022-11-09T01:20:15.932Z,49.42
2022-11-09T01:22:46.841Z,49.48
2022-11-09T01:25:17.805Z,49.56
2022-11-09T01:27:48.431Z,49.31
2022-11-09T01:30:19.444Z,49.60
2022-11-09T01:32:50.133Z,49.37
2022-11-09T01:35:20.841Z,49.38
2022-11-09T01:37:51.495Z,49.43
2022-11-09T01:40:22.140Z,49.41
2022-11-09T01:42:53.061Z,49.48
2022-11-09T01:45:30.781Z,49.66
2022-11-09T01:48:08.087Z,49.75
2022-11-09T01:50:44.400Z,49.80
2022-11-09T01:53:19.100Z,49.88
2022-11-09T01:55:53.544Z,49.79
2022-11-09T01:58:27.974Z,49.84
2022-11-09T02:01:01.466Z,49.79
2022-11-09T02:03:35.326Z,49.88
2022-11-09T02:06:09.834Z,49.77
2022-11-09T02:08:42.074Z,49.65
2022-11-09T02:11:15.201Z,49.85
2022-11-09T02:13:50.404Z,49.74
2022-11-09T02:16:21.751Z,49.71
2022-11-09T02:18:55.327Z,49.60
2022-11-09T02:21:28.276Z,49.44
2022-11-09T02:23:59.503Z,49.51
2022-11-09T02:26:32.371Z,49.39
2022-11-09T02:29:06.654Z,49.46
2022-11-09T02:31:40.704Z,49.41
2022-11-09T02:34:13.976Z,49.70
2022-11-09T02:36:44.766Z,49.41
2022-11-09T02:39:18.864Z,49.55
2022-11-09T02:41:52.186Z,49.33
2022-11-09T02:44:23.543Z,49.41
2022-11-09T02:46:54.531Z,49.67
2022-11-09T02:49:25.217Z,49.45
2022-11-09T02:51:55.834Z,49.57
2022-11-09T02:54:26.549Z,49.47
2022-11-09T02:56:57.533Z,49.57
2022-11-09T02:59:28.177Z,49.54
2022-11-09T03:01:58.789Z,49.58
2022-11-09T03:04:29.874Z,49.57
2022-11-09T03:07:00.690Z,49.54
2022-11-09T03:09:31.427Z,49.53
2022-11-09T03:12:22.713Z,49.58
2022-11-09T03:14:53.370Z,49.65
2022-11-09T03:17:24.179Z,49.64
2022-11-09T03:19:56.273Z,49.38
2022-11-09T03:22:26.984Z,49.76
2022-11-09T03:24:57.856Z,49.63
2022-11-09T03:27:28.492Z,49.70
2022-11-09T03:29:59.340Z,49.65
2022-11-09T03:32:29.914Z,49.82
2022-11-09T03:35:00.592Z,49.82
2022-11-09T03:37:31.265Z,49.86
2022-11-09T03:40:01.988Z,49.73
2022-11-09T03:42:32.612Z,49.89
2022-11-09T03:45:03.246Z,49.69
2022-11-09T03:47:33.828Z,49.80
2022-11-09T03:50:04.682Z,49.99
2022-11-09T03:52:35.460Z,49.82
2022-11-09T03:55:07.697Z,49.64
2022-11-09T03:57:38.469Z,49.63
2022-11-09T04:00:12.652Z,49.74
2022-11-09T04:02:43.262Z,49.96
2022-11-09T04:05:15.348Z,49.90
2022-11-09T04:07:50.957Z,49.78
2022-11-09T04:10:22.682Z,50.07
2022-11-09T04:12:53.744Z,50.05
2022-11-09T04:15:24.389Z,50.11
2022-11-09T04:17:59.873Z,50.17
2022-11-09T04:20:32.391Z,50.32
2022-11-09T04:23:06.567Z,50.46
2022-11-09T04:25:38.699Z,50.47
2022-11-09T04:28:12.398Z,50.40
2022-11-09T04:30:41.495Z,50.34
2022-11-09T04:33:12.134Z,50.33
2022-11-09T04:35:42.789Z,50.30
2022-11-09T04:38:17.276Z,50.38
2022-11-09T04:40:48.053Z,50.40
2022-11-09T04:43:18.900Z,50.41
2022-11-09T04:45:49.756Z,50.18
2022-11-09T04:48:20.404Z,50.46
2022-11-09T04:50:51.081Z,50.30
2022-11-09T04:53:22.052Z,50.16
2022-11-09T04:55:53.684Z,50.21
2022-11-09T04:58:25.226Z,50.03
2022-11-09T05:00:56.860Z,50.11
2022-11-09T05:03:27.592Z,50.16
2022-11-09T05:05:58.565Z,50.08
2022-11-09T05:08:29.524Z,50.03
2022-11-09T05:11:00.463Z,50.06
2022-11-09T05:13:31.102Z,50.01
2022-11-09T05:16:05.015Z,50.04
2022-11-09T05:18:35.748Z,50.08
2022-11-09T05:21:06.994Z,50.05
2022-11-09T05:23:55.140Z,50.03
2022-11-09T05:26:25.793Z,49.71
2022-11-09T05:28:57.739Z,49.49
2022-11-09T05:31:29.264Z,49.55
2022-11-09T05:34:00.642Z,49.59
2022-11-09T05:36:33.634Z,49.46
2022-11-09T05:39:04.442Z,49.51
2022-11-09T05:41:35.273Z,49.56
2022-11-09T05:44:06.356Z,49.48
2022-11-09T05:46:37.501Z,49.38
2022-11-09T05:49:08.252Z,49.42
2022-11-09T05:51:38.915Z,49.40
2022-11-09T05:54:09.594Z,49.47
2022-11-09T05:56:40.352Z,49.51
2022-11-09T05:59:11.449Z,49.33
2022-11-09T06:01:42.192Z,49.27
2022-11-09T06:04:12.972Z,49.49
2022-11-09T06:06:44.368Z,49.50
2022-11-09T06:09:15.063Z,49.51
2022-11-09T06:11:45.679Z,49.42
2022-11-09T06:14:16.854Z,49.34
2022-11-09T06:16:47.572Z,49.60
2022-11-09T06:19:18.322Z,49.59
2022-11-09T06:21:48.975Z,49.63
2022-11-09T06:24:19.901Z,49.61
2022-11-09T06:26:50.637Z,49.53
2022-11-09T06:29:21.289Z,49.41
2022-11-09T06:31:51.929Z,49.28
2022-11-09T06:34:22.580Z,49.39
2022-11-09T06:36:53.714Z,49.38
2022-11-09T06:39:24.586Z,49.39
2022-11-09T06:41:55.493Z,49.43
2022-11-09T06:44:26.176Z,49.57
2022-11-09T06:46:56.853Z,49.55
2022-11-09T06:49:27.693Z,49.41
2022-11-09T06:51:58.330Z,49.48
2022-11-09T06:54:29.242Z,49.41
2022-11-09T06:56:59.899Z,49.33
2022-11-09T06:59:30.523Z,49.38
2022-11-09T07:02:01.833Z,49.44
2022-11-09T07:04:32.649Z,49.19
2022-11-09T07:07:03.360Z,49.25
2022-11-09T07:09:34.039Z,49.23
2022-11-09T07:12:05.200Z,49.11
2022-11-09T07:14:36.096Z,49.18
2022-11-09T07:17:06.783Z,49.06
2022-11-09T07:19:37.390Z,49.16
2022-11-09T07:22:08.172Z,49.30
2022-11-09T07:24:38.832Z,49.29
2022-11-09T07:27:09.828Z,49.30
2022-11-09T07:29:40.721Z,49.08
2022-11-09T07:32:11.445Z,49.21
2022-11-09T07:34:42.132Z,49.07
2022-11-09T07:37:12.813Z,49.06
2022-11-09T07:39:43.444Z,49.17
2022-11-09T07:42:14.614Z,49.06
2022-11-09T07:44:45.263Z,49.20
2022-11-09T07:47:18.461Z,49.10
2022-11-09T07:49:49.178Z,49.01
2022-11-09T07:52:19.916Z,49.15
2022-11-09T07:54:52.288Z,49.08
2022-11-09T07:57:23.338Z,49.03
2022-11-09T07:59:54.163Z,49.05
2022-11-09T08:02:24.810Z,48.99
2022-11-09T08:04:55.446Z,49.12
2022-11-09T08:07:26.290Z,49.12
2022-11-09T08:09:56.881Z,49.05
2022-11-09T08:12:27.826Z,49.04
2022-11-09T08:15:00.225Z,49.08
2022-11-09T08:17:30.875Z,48.99
2022-11-09T08:20:01.613Z,49.01
2022-11-09T08:22:32.356Z,49.06
2022-11-09T08:25:03.104Z,49.02
2022-11-09T08:27:40.061Z,48.90
2022-11-09T08:30:15.637Z,48.99
2022-11-09T08:32:47.171Z,48.98
2022-11-09T08:35:21.375Z,49.19
2022-11-09T08:37:53.880Z,49.11
2022-11-09T08:40:26.339Z,49.21
2022-11-09T08:42:57.098Z,49.09
2022-11-09T08:45:27.927Z,49.02
2022-11-09T08:48:02.250Z,49.06
2022-11-09T08:50:34.617Z,48.92
2022-11-09T08:53:06.547Z,49.04
2022-11-09T08:55:38.034Z,48.95
2022-11-09T08:58:08.740Z,49.07
2022-11-09T09:00:40.021Z,48.94
2022-11-09T09:03:10.849Z,49.10
2022-11-09T09:05:41.969Z,48.97
2022-11-09T09:08:15.405Z,48.93
2022-11-09T09:10:46.061Z,49.12
2022-11-09T09:13:16.673Z,49.13
2022-11-09T09:15:47.672Z,49.04
2022-11-09T09:18:18.838Z,48.92
2022-11-09T09:20:50.005Z,48.94
2022-11-09T09:23:20.762Z,49.01
2022-11-09T09:25:55.124Z,49.11
2022-11-09T09:28:28.611Z,49.08
2022-11-09T09:31:01.766Z,48.97
2022-11-09T09:33:32.522Z,49.00
2022-11-09T09:36:03.653Z,48.95
2022-11-09T09:38:34.337Z,49.01
2022-11-09T09:41:07.687Z,49.09
2022-11-09T09:43:43.456Z,48.97
2022-11-09T09:46:21.546Z,49.11
2022-11-09T09:48:57.122Z,48.94
2022-11-09T09:51:33.877Z,49.04
2022-11-09T09:54:13.207Z,49.27
2022-11-09T09:56:47.838Z,49.10
2022-11-09T09:59:25.454Z,48.87
2022-11-09T10:01:58.562Z,49.00
2022-11-09T10:04:36.806Z,49.07
2022-11-09T10:07:14.678Z,48.94
2022-11-09T10:10:02.165Z,48.90
2022-11-09T10:12:42.137Z,48.80
2022-11-09T10:15:31.504Z,48.90
2022-11-09T10:18:30.129Z,48.84
2022-11-09T10:21:13.204Z,48.72
2022-11-09T10:23:57.726Z,48.62
2022-11-09T10:26:34.430Z,48.59
2022-11-09T10:29:18.144Z,48.55
2022-11-09T10:31:50.788Z,48.62
2022-11-09T10:34:26.315Z,48.54
2022-11-09T10:37:04.653Z,48.30
2022-11-09T10:39:43.665Z,48.26
2022-11-09T10:42:14.753Z,48.34
2022-11-09T10:44:45.455Z,48.29
2022-11-09T10:47:18.074Z,48.09
2022-11-09T10:50:06.466Z,48.04
2022-11-09T10:52:47.028Z,48.03
2022-11-09T10:55:26.578Z,48.05
2022-11-09T10:58:03.250Z,48.14
2022-11-09T11:00:34.295Z,47.91
2022-11-09T11:03:17.444Z,47.87
2022-11-09T11:06:00.078Z,47.85
2022-11-09T11:08:44.124Z,47.83
2022-11-09T11:11:34.250Z,47.76
2022-11-09T11:14:18.486Z,47.80
2022-11-09T11:16:53.505Z,47.82
2022-11-09T11:19:37.337Z,47.67
2022-11-09T11:22:23.878Z,47.56
2022-11-09T11:25:00.228Z,47.83
2022-11-09T11:27:40.717Z,47.53
2022-11-09T11:30:17.127Z,47.68
2022-11-09T11:32:50.759Z,47.54
2022-11-09T11:35:29.275Z,47.48
2022-11-09T11:38:12.393Z,47.65
2022-11-09T11:40:50.783Z,47.32
2022-11-09T11:43:35.101Z,47.11
2022-11-09T11:46:15.444Z,47.06
2022-11-09T11:49:04.365Z,47.25
2022-11-09T11:51:41.402Z,47.23
2022-11-09T11:54:21.104Z,46.87
2022-11-09T11:57:00.591Z,46.96
2022-11-09T11:59:43.844Z,46.84
2022-11-09T12:02:37.343Z,47.03
2022-11-09T12:05:51.643Z,46.75
2022-11-09T12:08:31.642Z,47.12
2022-11-09T12:11:12.479Z,46.96
2022-11-09T12:13:56.277Z,46.93
2022-11-09T12:16:32.555Z,46.80
2022-11-09T12:19:27.708Z,46.88
2022-11-09T12:22:08.253Z,46.85
2022-11-09T12:24:46.416Z,46.93
2022-11-09T12:27:38.236Z,46.92
2022-11-09T12:30:15.875Z,46.76
2022-11-09T12:32:53.731Z,46.77
2022-11-09T12:35:31.671Z,46.59
2022-11-09T12:38:09.534Z,46.46
2022-11-09T12:40:45.879Z,46.51
2022-11-09T12:43:22.867Z,46.52
2022-11-09T12:45:55.100Z,46.48
2022-11-09T12:48:29.314Z,46.32
2022-11-09T12:51:01.972Z,46.43
2022-11-09T12:53:36.736Z,46.43
2022-11-09T12:56:11.898Z,46.52
2022-11-09T12:58:42.863Z,46.48
2022-11-09T13:01:36.254Z,46.37
2022-11-09T13:04:07.835Z,46.38
2022-11-09T13:06:38.775Z,46.21
2022-11-09T13:09:22.505Z,46.31
2022-11-09T13:11:54.522Z,46.38
2022-11-09T13:14:40.523Z,46.22
2022-11-09T13:18:02.925Z,46.39
2022-11-09T13:20:55.173Z,46.27
2022-11-09T13:26:56.277Z,46.28
2022-11-09T13:29:29.528Z,46.27
2022-11-09T13:32:07.010Z,46.25
2022-11-09T13:34:49.702Z,46.13
2022-11-09T13:37:49.408Z,46.17
2022-11-09T13:40:45.912Z,46.13
2022-11-09T13:43:25.751Z,46.19
2022-11-09T13:45:59.917Z,46.18
2022-11-09T13:48:46.186Z,46.12
2022-11-09T13:51:19.952Z,46.12
2022-11-09T13:53:54.119Z,46.10
2022-11-09T13:56:33.844Z,46.21
2022-11-09T13:59:12.777Z,46.05
2022-11-09T14:01:51.970Z,46.05
2022-11-09T14:04:28.368Z,46.17
2022-11-09T14:07:05.209Z,46.09
2022-11-09T14:09:52.536Z,46.23
2022-11-09T14:12:42.070Z,46.17
2022-11-09T14:15:41.327Z,45.98
2022-11-09T14:18:24.718Z,46.15
2022-11-09T14:21:04.853Z,46.15
2022-11-09T14:23:36.243Z,46.18
2022-11-09T14:26:17.399Z,46.23
2022-11-09T14:28:48.146Z,45.93
2022-11-09T14:31:29.818Z,46.08
2022-11-09T14:34:05.898Z,46.23
2022-11-09T14:36:38.196Z,46.18
2022-11-09T14:39:24.140Z,46.05
2022-11-09T14:41:55.376Z,46.07
2022-11-09T14:44:29.707Z,46.19
2022-11-09T14:47:01.403Z,46.16
2022-11-09T14:49:32.845Z,46.32
2022-11-09T14:52:04.685Z,46.14
2022-11-09T14:54:36.759Z,46.16
2022-11-09T14:57:07.947Z,46.15
2022-11-09T14:59:38.750Z,46.28
2022-11-09T15:02:11.838Z,46.16
2022-11-09T15:04:57.359Z,46.03
2022-11-09T15:07:31.866Z,46.00
2022-11-09T15:10:07.314Z,46.15
2022-11-09T15:12:43.828Z,46.20
2022-11-09T15:15:24.378Z,46.21
2022-11-09T15:17:55.807Z,46.32
2022-11-09T15:20:31.089Z,46.09
2022-11-09T15:23:04.735Z,46.14
2022-11-09T15:25:52.989Z,46.17
2022-11-09T15:28:27.238Z,46.06
2022-11-09T15:31:19.496Z,46.16
2022-11-09T15:33:53.467Z,46.13
2022-11-09T15:36:31.676Z,46.07
2022-11-09T15:39:13.489Z,46.21
2022-11-09T15:41:44.344Z,46.26
2022-11-09T15:44:17.220Z,45.93
2022-11-09T15:46:51.562Z,45.97
2022-11-09T15:49:26.118Z,46.28
2022-11-09T15:51:57.507Z,46.24
2022-11-09T15:54:28.721Z,46.39
2022-11-09T15:56:59.421Z,46.37
2022-11-09T15:59:30.383Z,46.20
2022-11-09T16:02:01.295Z,46.17
2022-11-09T16:04:32.239Z,46.14
2022-11-09T16:07:03.058Z,46.32
2022-11-09T16:09:34.023Z,46.36
2022-11-09T16:12:05.273Z,46.20
2022-11-09T16:14:36.647Z,46.26
2022-11-09T16:17:07.736Z,46.04
2022-11-09T16:19:39.843Z,46.29
2022-11-09T16:22:11.902Z,46.37
2022-11-09T16:24:43.568Z,46.44
2022-11-09T16:27:42.988Z,46.30
2022-11-09T16:30:06.062Z,46.45
2022-11-09T16:32:37.067Z,46.38
2022-11-09T16:38:03.439Z,46.42
2022-11-09T16:40:34.704Z,46.44
2022-11-09T16:43:05.945Z,46.43
2022-11-09T16:45:36.889Z,46.58
2022-11-09T16:48:12.083Z,46.46
2022-11-09T16:50:43.033Z,46.41
2022-11-09T16:53:14.116Z,46.49
2022-11-09T16:55:45.022Z,46.58
2022-11-09T16:58:15.838Z,46.43
2022-11-09T17:01:09.247Z,46.43
2022-11-09T17:03:40.206Z,46.43
2022-11-09T17:06:11.894Z,46.47
2022-11-09T17:08:43.270Z,46.34
2022-11-09T17:11:16.045Z,46.38
2022-11-09T17:13:47.482Z,46.34
2022-11-09T17:16:21.123Z,46.53
2022-11-09T17:18:52.901Z,46.56
2022-11-09T17:21:24.643Z,46.61
2022-11-09T17:23:57.120Z,46.58
2022-11-09T17:26:28.629Z,46.73
2022-11-09T17:28:59.381Z,46.77
2022-11-09T17:31:30.246Z,46.83
2022-11-09T17:34:01.696Z,46.86
2022-11-09T17:37:02.554Z,46.72
2022-11-09T17:39:25.335Z,46.90
2022-11-09T17:41:56.625Z,47.09
2022-11-09T17:44:27.476Z,46.97
2022-11-09T17:46:58.486Z,47.18
2022-11-09T17:49:29.182Z,47.01
2022-11-09T17:52:00.198Z,46.92
2022-11-09T17:54:36.462Z,47.07
2022-11-09T17:57:08.114Z,47.01
2022-11-09T17:59:39.234Z,47.02
2022-11-09T18:02:10.501Z,47.05
2022-11-09T18:04:41.423Z,47.11
2022-11-09T18:07:12.361Z,47.12
2022-11-09T18:09:43.426Z,47.10
2022-11-09T18:12:16.540Z,47.04
2022-11-09T18:14:47.595Z,47.01
2022-11-09T18:17:18.289Z,47.07
2022-11-09T18:19:49.361Z,47.14
2022-11-09T18:22:20.184Z,47.18
2022-11-09T18:24:51.055Z,47.20
2022-11-09T18:27:24.823Z,47.00
2022-11-09T18:30:01.880Z,47.12
2022-11-09T18:32:32.783Z,47.00
2022-11-09T18:35:03.719Z,46.88
2022-11-09T18:37:38.503Z,46.95
2022-11-09T18:40:11.208Z,47.06
2022-11-09T18:42:42.599Z,47.08
2022-11-09T18:45:14.194Z,47.12
2022-11-09T18:47:45.159Z,47.14
2022-11-09T18:50:16.298Z,47.13
2022-11-09T18:52:47.285Z,47.13
2022-11-09T18:55:18.977Z,47.13
2022-11-09T18:57:49.823Z,47.15
2022-11-09T19:00:22.240Z,47.12
2022-11-09T19:02:53.354Z,47.22
2022-11-09T19:05:24.761Z,47.09
2022-11-09T19:07:55.593Z,47.19
2022-11-09T19:10:26.439Z,47.28
2022-11-09T19:12:57.924Z,47.25
2022-11-09T19:15:29.060Z,47.19
2022-11-09T19:18:00.080Z,47.16
2022-11-09T19:20:31.047Z,47.01
2022-11-09T19:23:02.236Z,47.12
2022-11-09T19:25:33.182Z,47.10
2022-11-09T19:28:04.230Z,47.01
2022-11-09T19:30:35.018Z,47.01
2022-11-09T19:33:06.809Z,46.98
2022-11-09T19:35:37.707Z,47.01
2022-11-09T19:38:08.850Z,46.99
2022-11-09T19:40:40.175Z,46.93
2022-11-09T19:43:12.096Z,46.80
2022-11-09T19:45:45.805Z,46.86
2022-11-09T19:48:16.719Z,47.04
2022-11-09T19:50:51.569Z,46.92
2022-11-09T19:53:22.632Z,46.94
2022-11-09T19:55:58.655Z,46.93
2022-11-09T19:58:29.587Z,46.91
2022-11-09T20:01:08.906Z,46.84
2022-11-09T20:03:39.846Z,46.57
2022-11-09T20:06:11.242Z,46.56
2022-11-09T20:08:42.274Z,46.67
2022-11-09T20:11:35.436Z,46.71
2022-11-09T20:14:06.978Z,46.88
2022-11-09T20:16:38.984Z,46.82
2022-11-09T20:19:12.340Z,46.92
2022-11-09T20:21:44.511Z,46.97
2022-11-09T20:24:15.539Z,47.04
2022-11-09T20:26:46.394Z,47.14
2022-11-09T20:29:17.444Z,47.20
2022-11-09T20:31:48.366Z,47.19
2022-11-09T20:34:19.228Z,47.18
2022-11-09T20:36:50.042Z,47.38
2022-11-09T20:39:21.857Z,47.40
2022-11-09T20:41:53.266Z,47.34
2022-11-09T20:44:24.292Z,47.38
2022-11-09T20:46:55.107Z,47.44
2022-11-09T20:49:25.923Z,47.51
2022-11-09T20:51:56.667Z,47.51
2022-11-09T20:54:27.539Z,47.52
2022-11-09T20:56:58.511Z,47.53
2022-11-09T20:59:29.262Z,47.50
2022-11-09T21:02:00.606Z,47.60
2022-11-09T21:04:31.793Z,47.78
2022-11-09T21:07:02.645Z,47.69
2022-11-09T21:09:33.668Z,47.72
2022-11-09T21:12:24.789Z,47.65
2022-11-09T21:14:56.102Z,47.65
2022-11-09T21:17:26.941Z,47.65
2022-11-09T21:19:57.764Z,47.60
2022-11-09T21:22:48.576Z,47.73
2022-11-09T21:25:36.747Z,47.70
2022-11-09T21:28:30.578Z,47.72
2022-11-09T21:31:04.110Z,47.79
2022-11-09T21:33:34.987Z,47.88
2022-11-09T21:36:11.593Z,47.90
2022-11-09T21:38:42.699Z,47.97
2022-11-09T21:41:31.041Z,48.00
2022-11-09T21:44:01.816Z,48.14
2022-11-09T21:46:32.790Z,48.06
2022-11-09T21:49:04.585Z,47.99
2022-11-09T21:51:36.177Z,48.02
2022-11-09T21:54:08.248Z,48.10
2022-11-09T21:56:39.056Z,47.97
2022-11-09T21:59:10.137Z,48.04
2022-11-09T22:01:41.376Z,48.04
2022-11-09T22:04:12.760Z,48.01
2022-11-09T22:06:44.430Z,47.97
2022-11-09T22:09:18.241Z,47.99
2022-11-09T22:12:06.518Z,48.04
2022-11-09T22:15:00.270Z,47.93
2022-11-09T22:17:31.197Z,48.00
2022-11-09T22:20:19.770Z,48.04
2022-11-09T22:22:50.506Z,48.08
2022-11-09T22:25:21.213Z,47.97
2022-11-09T22:27:52.094Z,48.02
2022-11-09T22:30:23.023Z,48.23
2022-11-09T22:32:53.731Z,48.19
2022-11-09T22:35:24.421Z,48.17
2022-11-09T22:37:55.192Z,48.08
2022-11-09T22:40:25.884Z,48.14
2022-11-09T22:42:59.296Z,48.13
2022-11-09T22:45:30.106Z,48.20
2022-11-09T22:48:01.865Z,48.15
2022-11-09T22:50:33.165Z,48.21
2022-11-09T22:53:04.291Z,48.37
2022-11-09T22:55:35.303Z,48.50
2022-11-09T22:58:06.321Z,48.51
2022-11-09T23:00:37.025Z,48.54
2022-11-09T23:03:08.267Z,48.69
2022-11-09T23:05:39.265Z,48.62
2022-11-09T23:08:10.537Z,48.64
2022-11-09T23:10:41.196Z,48.84
2022-11-09T23:13:11.874Z,49.03
2022-11-09T23:15:42.673Z,48.94
2022-11-09T23:18:30.929Z,48.90
2022-11-09T23:21:03.141Z,48.88
2022-11-09T23:23:34.541Z,49.03
2022-11-09T23:26:06.094Z,48.97
2022-11-09T23:28:37.211Z,48.99
2022-11-09T23:31:11.756Z,49.03
2022-11-09T23:33:42.688Z,48.99
2022-11-09T23:36:13.545Z,49.08
2022-11-09T23:38:44.286Z,49.00
2022-11-09T23:41:15.840Z,48.99
2022-11-09T23:43:49.678Z,48.93
2022-11-09T23:46:20.758Z,49.09
2022-11-09T23:48:51.532Z,49.12
2022-11-09T23:51:23.388Z,48.97
2022-11-09T23:53:54.063Z,48.90
2022-11-09T23:56:24.772Z,48.97
2022-11-09T23:58:55.406Z,48.98
